createdAt,value
2023-05-02T00:02:14.004Z,2.97
2023-05-02T00:04:41.056Z,3.50
2023-05-02T00:07:11.518Z,3.35
2023-05-02T00:09:38.460Z,4.07
2023-05-02T00:12:05.491Z,2.83
2023-05-02T00:14:35.616Z,4.45
2023-05-02T00:17:05.121Z,5.10
2023-05-02T00:19:34.219Z,2.85
2023-05-02T00:22:03.927Z,3.63
2023-05-02T00:24:30.907Z,3.70
2023-05-02T00:26:57.826Z,5.25
2023-05-02T00:29:27.276Z,3.00
2023-05-02T00:31:54.201Z,4.70
2023-05-02T00:34:21.190Z,3.05
2023-05-02T00:36:48.802Z,4.40
2023-05-02T00:39:18.000Z,5.22
2023-05-02T00:41:47.162Z,3.20
2023-05-02T00:44:14.174Z,3.80
2023-05-02T00:46:45.987Z,2.88
2023-05-02T00:49:15.206Z,2.83
2023-05-02T00:51:44.633Z,2.78
2023-05-02T00:54:17.153Z,3.65
2023-05-02T00:56:44.088Z,3.83
2023-05-02T00:59:11.400Z,4.10
2023-05-02T01:02:03.165Z,4.72
2023-05-02T01:05:03.417Z,2.90
2023-05-02T01:07:40.370Z,3.30
2023-05-02T01:10:37.598Z,4.10
2023-05-02T01:13:20.621Z,5.57
2023-05-02T01:15:47.703Z,3.90
2023-05-02T01:18:20.122Z,3.30
2023-05-02T01:20:47.069Z,6.53
2023-05-02T01:23:37.740Z,4.43
2023-05-02T01:26:31.079Z,3.33
2023-05-02T01:29:08.308Z,4.03
2023-05-02T01:31:39.897Z,6.78
2023-05-02T01:34:12.143Z,4.68
2023-05-02T01:36:48.178Z,6.07
2023-05-02T01:39:19.280Z,5.22
2023-05-02T01:41:49.559Z,4.70
2023-05-02T01:44:17.220Z,4.97
2023-05-02T01:46:44.365Z,5.50
2023-05-02T01:49:11.450Z,5.63
2023-05-02T01:51:44.152Z,4.70
2023-05-02T01:54:11.103Z,6.15
2023-05-02T01:56:38.679Z,6.53
2023-05-02T01:59:06.614Z,5.63
2023-05-02T02:01:39.205Z,4.70
2023-05-02T02:04:09.878Z,5.22
2023-05-02T02:06:36.860Z,6.15
2023-05-02T02:09:04.009Z,5.32
2023-05-02T02:11:36.025Z,6.95
2023-05-02T02:14:12.068Z,6.35
2023-05-02T02:16:39.071Z,7.03
2023-05-02T02:19:07.522Z,9.18
2023-05-02T02:21:35.346Z,10.40
2023-05-02T02:24:03.093Z,9.18
2023-05-02T02:26:30.073Z,11.23
2023-05-02T02:28:57.128Z,14.38
2023-05-02T02:31:25.917Z,13.07
2023-05-02T02:33:53.005Z,13.05
2023-05-02T02:36:24.778Z,11.02
2023-05-02T02:38:58.159Z,12.38
2023-05-02T02:41:37.306Z,11.35
2023-05-02T02:44:18.043Z,12.40
2023-05-02T02:47:02.620Z,11.50
2023-05-02T02:49:50.477Z,12.60
2023-05-02T02:52:36.151Z,14.18
2023-05-02T02:55:17.419Z,16.38
2023-05-02T02:57:52.458Z,14.52
2023-05-02T03:00:21.286Z,16.52
2023-05-02T03:02:50.944Z,16.00
2023-05-02T03:05:18.006Z,14.75
2023-05-02T03:07:47.923Z,15.15
2023-05-02T03:10:17.318Z,16.75
2023-05-02T03:12:46.529Z,16.17
2023-05-02T03:15:41.639Z,14.32
2023-05-02T03:18:10.129Z,17.75
2023-05-02T03:20:37.233Z,20.52
2023-05-02T03:23:05.086Z,12.98
2023-05-02T03:25:35.143Z,16.10
2023-05-02T03:28:02.145Z,15.68
2023-05-02T03:30:29.698Z,17.25
2023-05-02T03:32:57.258Z,15.80
2023-05-02T03:35:24.531Z,15.00
2023-05-02T03:37:52.829Z,17.95
2023-05-02T03:40:22.187Z,14.88
2023-05-02T03:42:51.482Z,15.75
2023-05-02T03:45:25.126Z,15.73
2023-05-02T03:47:55.759Z,16.80
2023-05-02T03:50:23.427Z,15.38
2023-05-02T03:52:54.543Z,17.77
2023-05-02T03:55:32.274Z,15.57
2023-05-02T03:57:59.378Z,17.27
2023-05-02T04:00:28.637Z,19.27
2023-05-02T04:03:02.779Z,17.88
2023-05-02T04:05:33.809Z,19.05
2023-05-02T04:08:02.286Z,19.23
2023-05-02T04:10:35.046Z,17.77
2023-05-02T04:13:05.687Z,17.15
2023-05-02T04:15:34.665Z,19.42
2023-05-02T04:18:04.674Z,16.55
2023-05-02T04:20:33.721Z,16.92
2023-05-02T04:23:00.949Z,15.93
2023-05-02T04:25:28.696Z,18.90
2023-05-02T04:27:58.084Z,18.23
2023-05-02T04:30:25.824Z,16.88
2023-05-02T04:33:01.548Z,16.10
2023-05-02T04:35:32.863Z,17.52
2023-05-02T04:38:00.301Z,15.07
2023-05-02T04:40:28.376Z,17.83
2023-05-02T04:43:01.425Z,15.70
2023-05-02T04:45:38.401Z,11.13
2023-05-02T04:48:10.503Z,14.27
2023-05-02T04:50:40.702Z,14.88
2023-05-02T04:53:07.703Z,12.75
2023-05-02T04:55:37.511Z,12.50
2023-05-02T04:58:11.566Z,16.00
2023-05-02T05:00:39.383Z,16.40
2023-05-02T05:03:11.148Z,14.05
2023-05-02T05:05:40.555Z,13.90
2023-05-02T05:08:12.747Z,12.00
2023-05-02T05:10:42.803Z,10.45
2023-05-02T05:13:12.659Z,9.18
2023-05-02T05:15:45.961Z,11.52
2023-05-02T05:18:16.162Z,12.70
2023-05-02T05:20:47.497Z,8.35
2023-05-02T05:23:19.660Z,9.95
2023-05-02T05:25:46.670Z,9.77
2023-05-02T05:28:18.933Z,7.95
2023-05-02T05:30:49.112Z,9.98
2023-05-02T05:33:24.995Z,9.02
2023-05-02T05:35:52.257Z,8.05
2023-05-02T05:38:19.579Z,6.57
2023-05-02T05:40:50.942Z,5.07
2023-05-02T05:43:18.457Z,5.78
2023-05-02T05:45:45.460Z,5.80
2023-05-02T05:48:14.979Z,6.90
2023-05-02T05:53:14.514Z,4.70
2023-05-02T05:55:45.819Z,4.90
2023-05-02T05:58:12.938Z,5.65
2023-05-02T06:00:44.325Z,5.90
2023-05-02T06:03:13.952Z,6.10
2023-05-02T06:05:43.139Z,8.82
2023-05-02T06:08:10.173Z,5.93
2023-05-02T06:10:37.091Z,6.07
2023-05-02T06:13:04.664Z,8.20
2023-05-02T06:15:40.427Z,8.55
2023-05-02T06:18:10.577Z,9.02
2023-05-02T06:20:39.719Z,7.18
2023-05-02T06:23:08.893Z,8.38
2023-05-02T06:25:38.906Z,8.00
2023-05-02T06:28:06.083Z,9.70
2023-05-02T06:30:33.104Z,10.73
2023-05-02T06:33:00.191Z,12.38
2023-05-02T06:35:27.278Z,10.23
2023-05-02T06:37:56.357Z,9.32
2023-05-02T06:40:23.360Z,9.52
2023-05-02T06:42:52.477Z,11.20
2023-05-02T06:45:19.478Z,10.65
2023-05-02T06:47:46.601Z,10.98
2023-05-02T06:50:13.569Z,12.18
2023-05-02T06:52:40.508Z,9.05
2023-05-02T06:55:12.220Z,11.52
2023-05-02T06:57:41.682Z,9.25
2023-05-02T07:00:09.310Z,12.50
2023-05-02T07:02:36.231Z,11.95
2023-05-02T07:05:05.251Z,12.85
2023-05-02T07:07:36.684Z,9.70
2023-05-02T07:10:07.133Z,9.77
2023-05-02T07:12:34.073Z,10.02
2023-05-02T07:15:01.058Z,16.85
2023-05-02T07:17:28.434Z,11.73
2023-05-02T07:19:56.501Z,8.93
2023-05-02T07:22:28.132Z,11.95
2023-05-02T07:25:06.695Z,8.18
2023-05-02T07:27:33.620Z,14.25
2023-05-02T07:30:01.454Z,11.43
2023-05-02T07:32:28.803Z,11.85
2023-05-02T07:34:57.010Z,15.60
2023-05-02T07:37:26.248Z,11.05
2023-05-02T07:39:53.300Z,12.75
2023-05-02T07:42:20.246Z,14.63
2023-05-02T07:44:47.171Z,14.80
2023-05-02T07:47:14.120Z,11.57
2023-05-02T07:49:41.172Z,8.98
2023-05-02T07:52:10.365Z,7.07
2023-05-02T07:54:37.402Z,7.38
2023-05-02T07:57:05.301Z,11.27
2023-05-02T07:59:34.313Z,8.30
2023-05-02T08:02:08.785Z,6.60
2023-05-02T08:04:35.906Z,7.72
2023-05-02T08:07:03.131Z,7.60
2023-05-02T08:09:35.065Z,5.57
2023-05-02T08:12:06.660Z,8.02
2023-05-02T08:14:33.642Z,8.85
2023-05-02T08:17:03.601Z,7.25
2023-05-02T08:19:30.591Z,4.25
2023-05-02T08:21:57.643Z,8.73
2023-05-02T08:24:24.717Z,8.40
2023-05-02T08:26:54.018Z,5.97
2023-05-02T08:29:21.182Z,7.53
2023-05-02T08:31:50.424Z,8.85
2023-05-02T08:34:17.467Z,8.02
2023-05-02T08:36:47.243Z,7.38
2023-05-02T08:39:14.272Z,9.48
2023-05-02T08:41:41.217Z,10.38
2023-05-02T08:44:08.186Z,7.93
2023-05-02T08:46:36.237Z,6.93
2023-05-02T08:49:05.873Z,8.50
2023-05-02T08:51:32.825Z,8.85
2023-05-02T08:54:00.191Z,6.65
2023-05-02T08:56:27.132Z,5.43
2023-05-02T08:58:56.144Z,8.30
2023-05-02T09:01:24.070Z,4.45
2023-05-02T09:03:52.388Z,7.28
2023-05-02T09:06:20.891Z,9.90
2023-05-02T09:08:58.519Z,7.43
2023-05-02T09:11:27.543Z,7.32
2023-05-02T09:14:03.951Z,9.35
2023-05-02T09:16:31.466Z,7.28
2023-05-02T09:19:01.389Z,10.88
2023-05-02T09:21:43.350Z,6.35
2023-05-02T09:24:18.364Z,7.63
2023-05-02T09:27:00.988Z,4.03
2023-05-02T09:29:30.718Z,4.68
2023-05-02T09:31:57.824Z,6.78
2023-05-02T09:34:24.958Z,6.45
2023-05-02T09:36:54.848Z,6.28
2023-05-02T09:39:26.745Z,4.03
2023-05-02T09:41:54.272Z,9.15
2023-05-02T09:44:25.687Z,7.97
2023-05-02T09:46:59.487Z,6.38
2023-05-02T09:49:41.844Z,10.25
2023-05-02T09:52:21.693Z,6.45
2023-05-02T09:54:52.720Z,6.72
2023-05-02T09:57:19.902Z,8.05
2023-05-02T10:00:01.200Z,3.83
2023-05-02T10:02:36.120Z,8.07
2023-05-02T10:05:05.782Z,6.05
2023-05-02T10:07:35.230Z,5.00
2023-05-02T10:10:02.146Z,7.57
2023-05-02T10:12:31.537Z,4.78
2023-05-02T10:15:01.350Z,9.02
2023-05-02T10:17:31.708Z,9.23
2023-05-02T10:20:04.573Z,7.43
2023-05-02T10:22:34.201Z,7.68
2023-05-02T10:25:02.155Z,3.70
2023-05-02T10:27:33.044Z,6.72
2023-05-02T10:30:00.631Z,6.22
2023-05-02T10:32:28.918Z,8.60
2023-05-02T10:35:02.991Z,6.22
2023-05-02T10:37:30.447Z,10.02
2023-05-02T10:40:06.767Z,6.82
2023-05-02T10:42:40.250Z,7.97
2023-05-02T10:45:16.132Z,6.55
2023-05-02T10:47:48.687Z,6.97
2023-05-02T10:50:17.931Z,7.38
2023-05-02T10:52:44.916Z,5.63
2023-05-02T10:55:21.837Z,8.27
2023-05-02T10:58:00.531Z,6.82
2023-05-02T11:03:03.796Z,7.38
2023-05-02T11:05:37.106Z,8.82
2023-05-02T11:08:17.174Z,7.75
2023-05-02T11:10:47.495Z,7.78
2023-05-02T11:13:14.573Z,8.95
2023-05-02T11:15:44.656Z,6.95
2023-05-02T11:18:15.297Z,6.13
2023-05-02T11:20:43.090Z,8.00
2023-05-02T11:23:16.493Z,7.30
2023-05-02T11:25:50.109Z,7.22
2023-05-02T11:28:48.455Z,5.90
2023-05-02T11:31:28.228Z,10.60
2023-05-02T11:34:01.083Z,6.15
2023-05-02T11:36:34.505Z,9.40
2023-05-02T11:39:02.113Z,6.57
2023-05-02T11:41:41.674Z,6.85
2023-05-02T11:44:08.602Z,9.07
2023-05-02T11:46:41.783Z,10.50
2023-05-02T11:49:09.723Z,6.63
2023-05-02T11:51:37.706Z,9.48
2023-05-02T11:54:10.284Z,6.68
2023-05-02T11:56:39.488Z,5.15
2023-05-02T11:59:06.518Z,9.02
2023-05-02T12:01:35.658Z,7.75
2023-05-02T12:04:08.387Z,8.30
2023-05-02T12:06:37.982Z,6.63
2023-05-02T12:09:08.624Z,6.20
2023-05-02T12:11:36.300Z,7.13
2023-05-02T12:14:05.772Z,5.75
2023-05-02T12:16:32.961Z,9.23
2023-05-02T12:19:01.175Z,8.35
2023-05-02T12:21:36.127Z,6.75
2023-05-02T12:24:03.131Z,7.18
2023-05-02T12:26:33.800Z,6.32
2023-05-02T12:29:03.304Z,6.10
2023-05-02T12:31:32.259Z,9.85
2023-05-02T12:34:02.695Z,9.18
2023-05-02T12:36:29.879Z,6.35
2023-05-02T12:39:00.232Z,8.40
2023-05-02T12:41:37.487Z,10.25
2023-05-02T12:44:05.228Z,5.25
2023-05-02T12:46:32.764Z,5.05
2023-05-02T12:49:08.133Z,5.05
2023-05-02T12:51:35.460Z,4.28
2023-05-02T12:54:02.937Z,4.80
2023-05-02T12:56:32.808Z,6.40
2023-05-02T12:59:01.654Z,8.20
2023-05-02T13:01:33.910Z,7.18
2023-05-02T13:06:27.979Z,7.35
2023-05-02T13:08:57.183Z,7.28
2023-05-02T13:11:26.771Z,4.72
2023-05-02T13:13:54.005Z,8.00
2023-05-02T13:16:24.146Z,6.95
2023-05-02T13:18:51.283Z,5.50
2023-05-02T13:21:18.328Z,10.57
2023-05-02T13:23:47.907Z,9.15
2023-05-02T13:26:15.162Z,6.82
2023-05-02T13:28:44.275Z,8.68
2023-05-02T13:31:13.720Z,6.30
2023-05-02T13:33:42.855Z,7.55
2023-05-02T13:36:09.776Z,7.75
2023-05-02T13:38:39.392Z,7.30
2023-05-02T13:41:08.432Z,6.65
2023-05-02T13:43:35.350Z,5.70
2023-05-02T13:46:04.866Z,5.85
2023-05-02T13:48:31.842Z,8.65
2023-05-02T13:50:58.898Z,6.15
2023-05-02T13:53:25.829Z,6.90
2023-05-02T13:55:57.628Z,5.93
2023-05-02T13:58:24.548Z,6.20
2023-05-02T14:00:51.520Z,6.20
2023-05-02T14:03:18.738Z,7.05
2023-05-02T14:05:47.919Z,6.25
2023-05-02T14:08:19.275Z,7.75
2023-05-02T14:10:46.308Z,6.30
2023-05-02T14:13:15.524Z,7.45
2023-05-02T14:15:42.489Z,6.97
2023-05-02T14:18:11.683Z,7.18
2023-05-02T14:20:38.600Z,8.75
2023-05-02T14:23:07.984Z,6.25
2023-05-02T14:25:35.669Z,4.28
2023-05-02T14:28:05.938Z,8.13
2023-05-02T14:30:32.917Z,8.05
2023-05-02T14:33:02.383Z,5.53
2023-05-02T14:35:29.348Z,9.75
2023-05-02T14:37:56.260Z,7.18
2023-05-02T14:40:27.890Z,7.90
2023-05-02T14:42:54.850Z,8.68
2023-05-02T14:45:21.796Z,9.68
2023-05-02T14:47:48.772Z,7.13
2023-05-02T14:50:15.939Z,9.60
2023-05-02T14:52:46.506Z,5.50
2023-05-02T14:55:13.551Z,6.82
2023-05-02T14:57:40.597Z,7.75
2023-05-02T15:00:08.749Z,7.18
2023-05-02T15:02:36.727Z,8.20
2023-05-02T15:05:05.617Z,5.70
2023-05-02T15:07:32.581Z,6.10
2023-05-02T15:09:59.676Z,9.40
2023-05-02T15:12:31.401Z,7.53
2023-05-02T15:15:05.662Z,8.52
2023-05-02T15:17:32.592Z,10.27
2023-05-02T15:20:02.229Z,7.10
2023-05-02T15:25:05.033Z,5.60
2023-05-02T15:27:32.380Z,7.18
2023-05-02T15:29:59.752Z,6.25
2023-05-02T15:32:26.859Z,6.07
2023-05-02T15:34:53.940Z,7.45
2023-05-02T15:37:23.150Z,7.97
2023-05-02T15:39:52.579Z,8.55
2023-05-02T15:42:19.509Z,8.88
2023-05-02T15:44:46.418Z,7.65
2023-05-02T15:47:13.319Z,8.73
2023-05-02T15:49:41.148Z,7.68
2023-05-02T15:52:08.148Z,7.18
2023-05-02T15:54:35.055Z,5.97
2023-05-02T15:57:02.685Z,8.18
2023-05-02T15:59:34.036Z,9.05
2023-05-02T16:02:01.159Z,7.22
2023-05-02T16:04:29.156Z,8.57
2023-05-02T16:07:00.506Z,5.28
2023-05-02T16:09:32.367Z,7.18
2023-05-02T16:11:59.350Z,8.05
2023-05-02T16:14:31.317Z,6.32
2023-05-02T16:17:00.483Z,7.53
2023-05-02T16:19:30.749Z,4.85
2023-05-02T16:21:59.908Z,6.28
2023-05-02T16:24:26.832Z,6.65
2023-05-02T16:26:55.957Z,6.10
2023-05-02T16:29:25.824Z,7.18
2023-05-02T16:31:55.968Z,6.05
2023-05-02T16:34:22.991Z,10.40
2023-05-02T16:36:49.958Z,6.47
2023-05-02T16:39:19.357Z,6.60
2023-05-02T16:41:49.380Z,5.95
2023-05-02T16:44:18.406Z,6.15
2023-05-02T16:46:47.612Z,5.45
2023-05-02T16:49:14.573Z,7.07
2023-05-02T16:51:43.751Z,4.25
2023-05-02T16:54:12.928Z,6.00
2023-05-02T16:56:41.322Z,7.80
2023-05-02T16:59:12.110Z,7.75
2023-05-02T17:01:39.049Z,4.15
2023-05-02T17:04:06.048Z,4.80
2023-05-02T17:06:33.105Z,4.70
2023-05-02T17:09:02.276Z,2.85
2023-05-02T17:11:29.220Z,4.65
2023-05-02T17:13:56.394Z,2.97
2023-05-02T17:16:25.725Z,3.92
2023-05-02T17:18:55.260Z,4.53
2023-05-02T17:21:22.138Z,3.63
2023-05-02T17:23:49.123Z,2.45
2023-05-02T17:26:16.613Z,5.50
2023-05-02T17:28:46.243Z,2.78
2023-05-02T17:31:15.557Z,4.82
2023-05-02T17:33:42.548Z,6.30
2023-05-02T17:36:12.586Z,3.65
2023-05-02T17:38:39.568Z,4.68
2023-05-02T17:41:06.508Z,4.43
2023-05-02T17:43:33.442Z,3.15
2023-05-02T17:46:06.847Z,3.60
2023-05-02T17:48:33.897Z,2.85
2023-05-02T17:51:08.433Z,3.38
2023-05-02T17:53:37.903Z,4.85
2023-05-02T17:56:07.632Z,4.97
2023-05-02T17:58:37.598Z,5.05
2023-05-02T18:01:11.378Z,3.78
2023-05-02T18:03:40.950Z,4.85
2023-05-02T18:06:09.032Z,7.78
2023-05-02T18:08:36.136Z,10.13
2023-05-02T18:11:05.840Z,4.78
2023-05-02T18:13:39.675Z,7.28
2023-05-02T18:16:08.883Z,6.78
2023-05-02T18:18:38.653Z,5.70
2023-05-02T18:21:09.718Z,6.68
2023-05-02T18:23:36.781Z,6.47
2023-05-02T18:26:03.997Z,7.60
2023-05-02T18:28:30.953Z,10.88
2023-05-02T18:31:00.395Z,8.00
2023-05-02T18:33:29.537Z,5.57
2023-05-02T18:36:03.371Z,5.30
2023-05-02T18:38:33.880Z,6.90
2023-05-02T18:41:03.010Z,7.80
2023-05-02T18:43:29.950Z,8.52
2023-05-02T18:45:56.858Z,6.38
2023-05-02T18:48:23.816Z,13.23
2023-05-02T18:50:51.536Z,6.63
2023-05-02T18:53:21.214Z,8.80
2023-05-02T18:55:53.232Z,8.50
2023-05-02T18:58:21.140Z,4.35
2023-05-02T19:00:50.421Z,7.60
2023-05-02T19:03:19.737Z,10.90
2023-05-02T19:05:46.831Z,6.53
2023-05-02T19:08:13.788Z,12.57
2023-05-02T19:10:42.879Z,6.05
2023-05-02T19:13:09.879Z,10.35
2023-05-02T19:15:36.894Z,6.40
2023-05-02T19:18:06.358Z,7.13
2023-05-02T19:20:33.442Z,6.28
2023-05-02T19:23:18.125Z,7.22
2023-05-02T19:25:46.795Z,9.30
2023-05-02T19:28:17.294Z,8.05
2023-05-02T19:30:46.946Z,7.78
2023-05-02T19:33:16.024Z,9.15
2023-05-02T19:35:42.928Z,5.72
2023-05-02T19:38:12.569Z,7.80
2023-05-02T19:40:39.517Z,8.70
2023-05-02T19:43:06.475Z,9.20
2023-05-02T19:45:40.574Z,5.00
2023-05-02T19:48:07.672Z,4.95
2023-05-02T19:50:37.835Z,5.63
2023-05-02T19:53:06.939Z,6.07
2023-05-02T19:55:33.882Z,4.45
2023-05-02T19:58:01.921Z,5.18
2023-05-02T20:00:31.337Z,6.25
2023-05-02T20:03:00.618Z,5.72
2023-05-02T20:05:30.043Z,5.57
2023-05-02T20:07:59.627Z,6.05
2023-05-02T20:10:26.984Z,6.32
2023-05-02T20:12:53.913Z,8.32
2023-05-02T20:15:21.870Z,10.38
2023-05-02T20:17:51.901Z,4.85
2023-05-02T20:20:18.972Z,6.45
2023-05-02T20:22:48.297Z,6.05
2023-05-02T20:25:18.300Z,4.55
2023-05-02T20:27:45.613Z,11.38
2023-05-02T20:30:12.707Z,5.13
2023-05-02T20:32:39.678Z,5.55
2023-05-02T20:35:07.219Z,10.85
2023-05-02T20:37:36.265Z,10.90
2023-05-02T20:40:05.418Z,7.10
2023-05-02T20:42:33.466Z,6.75
2023-05-02T20:45:01.773Z,6.75
2023-05-02T20:47:29.748Z,8.10
2023-05-02T20:49:59.306Z,9.18
2023-05-02T20:52:26.373Z,8.20
2023-05-02T20:54:54.685Z,7.72
2023-05-02T20:57:21.814Z,5.45
2023-05-02T20:59:48.760Z,6.97
2023-05-02T21:02:15.666Z,7.45
2023-05-02T21:04:42.629Z,6.80
2023-05-02T21:07:11.802Z,9.18
2023-05-02T21:09:38.724Z,7.53
2023-05-02T21:12:12.784Z,6.88
2023-05-02T21:14:39.685Z,7.95
2023-05-02T21:17:06.782Z,7.13
2023-05-02T21:19:37.435Z,6.85
2023-05-02T21:22:04.518Z,8.98
2023-05-02T21:24:31.585Z,5.82
2023-05-02T21:27:02.191Z,5.40
2023-05-02T21:29:29.178Z,9.75
2023-05-02T21:31:58.666Z,7.68
2023-05-02T21:34:27.874Z,7.45
2023-05-02T21:36:54.855Z,9.55
2023-05-02T21:39:21.969Z,7.78
2023-05-02T21:41:53.668Z,9.57
2023-05-02T21:44:20.649Z,7.85
2023-05-02T21:46:47.719Z,6.85
2023-05-02T21:49:14.762Z,8.18
2023-05-02T21:51:41.705Z,7.03
2023-05-02T21:54:08.661Z,5.40
2023-05-02T21:56:38.135Z,6.88
2023-05-02T21:59:05.054Z,8.18
2023-05-02T22:01:32.041Z,6.93
2023-05-02T22:04:01.272Z,6.55
2023-05-02T22:06:31.560Z,6.53
2023-05-02T22:11:31.708Z,5.47
2023-05-02T22:14:00.874Z,8.00
2023-05-02T22:16:32.728Z,6.13
2023-05-02T22:19:01.289Z,4.72
2023-05-02T22:21:30.362Z,5.93
2023-05-02T22:24:00.401Z,6.97
2023-05-02T22:26:27.384Z,5.43
2023-05-02T22:28:54.284Z,5.75
2023-05-02T22:31:21.500Z,8.95
2023-05-02T22:33:50.005Z,6.22
2023-05-02T22:36:17.750Z,7.78
2023-05-02T22:38:44.692Z,6.53
2023-05-02T22:41:11.659Z,4.93
2023-05-02T22:43:38.592Z,7.75
2023-05-02T22:46:05.648Z,5.70
2023-05-02T22:48:32.632Z,5.68
2023-05-02T22:51:02.051Z,7.25
2023-05-02T22:53:31.384Z,5.60
2023-05-02T22:56:00.458Z,6.88
2023-05-02T22:58:29.885Z,4.97
2023-05-02T23:00:59.111Z,6.03
2023-05-02T23:03:28.346Z,6.22
2023-05-02T23:05:55.369Z,4.45
2023-05-02T23:08:22.414Z,7.15
2023-05-02T23:10:49.583Z,6.13
2023-05-02T23:13:16.634Z,8.93
2023-05-02T23:15:45.876Z,5.95
2023-05-02T23:18:17.873Z,5.40
2023-05-02T23:20:44.966Z,5.60
2023-05-02T23:23:12.742Z,4.88
2023-05-02T23:25:42.362Z,4.97
2023-05-02T23:28:09.491Z,4.63
2023-05-02T23:30:37.287Z,6.18
2023-05-02T23:33:04.473Z,4.53
2023-05-02T23:35:32.334Z,5.75
2023-05-02T23:37:59.770Z,5.60
2023-05-02T23:40:28.327Z,3.65
2023-05-02T23:42:55.437Z,6.25
2023-05-02T23:45:22.498Z,5.22
2023-05-02T23:47:49.584Z,4.55
2023-05-02T23:50:19.133Z,4.70
2023-05-02T23:52:46.183Z,4.60
2023-05-02T23:55:13.385Z,6.95
2023-05-02T23:57:44.724Z,5.60
